Time;durP1;ratioP1;P1;durP2;ratioP2;P2;SDS_P1;SDS_P2;PMS_P1;PMS_P2;Temp;Humidity;BMP_temperature;BMP_pressure;BME280_temperature;BME280_humidity;BME280_pressure;Samples;Min_cycle;Max_cycle;Signal;HPM_P1;HPM_P2
2022/12/16 00:00:02;;;;;;;53.97;23.80;;;-4.00;99.90;;;;;;5053773;28;20264;-46
2022/12/16 00:02:28;;;;;;;56.17;24.67;;;-4.00;99.90;;;;;;5053996;28;20208;-46
2022/12/16 00:04:53;;;;;;;57.90;25.33;;;-4.00;99.90;;;;;;5054157;28;20167;-46
2022/12/16 00:07:19;;;;;;;54.13;25.50;;;-4.00;99.90;;;;;;5054112;28;20241;-45
2022/12/16 00:09:44;;;;;;;48.50;24.33;;;-4.00;99.90;;;;;;5053688;28;20304;-45
2022/12/16 00:12:10;;;;;;;53.30;23.33;;;-4.00;99.90;;;;;;5054585;28;20172;-45
2022/12/16 00:14:35;;;;;;;64.33;30.30;;;-4.10;99.90;;;;;;5053964;28;20507;-46
2022/12/16 00:17:01;;;;;;;59.93;25.00;;;-4.00;99.90;;;;;;5054179;28;20178;-45
2022/12/16 00:19:26;;;;;;;53.57;23.67;;;-4.10;99.90;;;;;;5053848;28;20178;-45
2022/12/16 00:21:52;;;;;;;59.80;26.43;;;-4.10;99.90;;;;;;5053874;28;20171;-45
2022/12/16 00:24:17;;;;;;;51.87;24.73;;;-4.10;99.90;;;;;;5053712;28;20259;-46
2022/12/16 00:26:43;;;;;;;55.77;23.93;;;-4.10;99.90;;;;;;5053990;28;20211;-45
2022/12/16 00:29:10;;;;;;;45.57;23.00;;;-6.10;99.90;;;;;;5054313;28;20210;-45
2022/12/16 00:31:35;;;;;;;50.03;23.03;;;-4.10;99.90;;;;;;5053834;28;20178;-47
2022/12/16 00:34:01;;;;;;;43.63;22.67;;;-4.10;99.90;;;;;;5053477;28;20180;-45
2022/12/16 00:36:26;;;;;;;49.27;24.17;;;-4.10;99.90;;;;;;5052628;28;20169;-45
2022/12/16 00:38:52;;;;;;;60.07;24.93;;;-4.10;99.90;;;;;;5053615;28;20265;-45
2022/12/16 00:41:18;;;;;;;44.77;22.43;;;-4.10;99.90;;;;;;5053504;28;20536;-46
2022/12/16 00:43:43;;;;;;;63.90;23.53;;;-4.10;99.90;;;;;;5053931;28;20169;-46
2022/12/16 00:46:09;;;;;;;52.17;22.60;;;-4.10;99.90;;;;;;5053745;28;20167;-45
2022/12/16 00:48:34;;;;;;;61.17;23.83;;;-4.10;99.90;;;;;;5053213;28;20229;-46
2022/12/16 00:51:00;;;;;;;47.00;22.37;;;-4.20;99.90;;;;;;5053134;28;20230;-45
2022/12/16 00:53:26;;;;;;;50.53;21.73;;;-4.10;99.90;;;;;;5053198;28;20223;-46
2022/12/16 00:56:00;;;;;;;50.70;22.27;;;-4.10;99.90;;;;;;5053339;28;20235;-45
2022/12/16 00:58:26;;;;;;;41.87;20.83;;;-4.20;99.90;;;;;;5053151;28;20162;-45
2022/12/16 01:00:51;;;;;;;45.43;21.57;;;-4.10;99.90;;;;;;5052952;28;20579;-45
2022/12/16 01:03:17;;;;;;;47.87;22.73;;;-4.20;99.90;;;;;;5052984;28;20185;-48
2022/12/16 01:05:42;;;;;;;43.60;21.00;;;-4.30;99.90;;;;;;5053389;28;20589;-47
2022/12/16 01:08:08;;;;;;;38.47;20.70;;;-4.10;99.90;;;;;;5052850;28;20624;-52
2022/12/16 01:10:33;;;;;;;48.10;21.30;;;-4.30;99.90;;;;;;5052601;28;20534;-49
2022/12/16 01:12:59;;;;;;;45.10;21.37;;;-4.20;99.90;;;;;;5052880;28;20565;-47
2022/12/16 01:15:24;;;;;;;44.33;20.13;;;-4.10;99.90;;;;;;5052810;28;20278;-49
2022/12/16 01:17:50;;;;;;;43.43;20.67;;;-4.20;99.90;;;;;;5052967;28;20163;-47
2022/12/16 01:20:16;;;;;;;48.70;21.00;;;-4.20;99.90;;;;;;5052689;28;20202;-48
2022/12/16 01:22:41;;;;;;;43.73;20.23;;;-4.30;99.90;;;;;;5052952;28;20243;-47
2022/12/16 01:25:08;;;;;;;44.80;20.33;;;-4.30;99.90;;;;;;5052580;28;20168;-51
2022/12/16 01:27:34;;;;;;;49.33;21.90;;;-4.40;99.90;;;;;;5052562;28;20174;-51
2022/12/16 01:30:00;;;;;;;42.60;21.50;;;-4.30;99.90;;;;;;5052204;28;20224;-46
2022/12/16 01:32:25;;;;;;;42.30;19.57;;;-4.40;99.90;;;;;;5052266;28;20225;-49
2022/12/16 01:34:52;;;;;;;45.93;20.63;;;-4.40;99.90;;;;;;5052589;28;20189;-47
2022/12/16 01:37:19;;;;;;;44.47;20.73;;;-4.40;99.90;;;;;;5052403;28;20171;-50
2022/12/16 01:39:45;;;;;;;39.70;20.40;;;-4.30;99.90;;;;;;5052492;28;20243;-48
2022/12/16 01:42:17;;;;;;;51.43;22.97;;;-2.90;99.90;;;;;;5052613;28;20170;-47
2022/12/16 01:44:44;;;;;;;48.03;22.53;;;-4.40;99.90;;;;;;5052569;28;20665;-48
2022/12/16 01:47:20;;;;;;;44.90;20.27;;;-4.30;99.90;;;;;;5052538;28;20171;-46
2022/12/16 01:49:53;;;;;;;45.50;19.40;;;-4.40;99.90;;;;;;5052064;28;20308;-49
2022/12/16 01:52:22;;;;;;;42.63;20.53;;;-4.40;99.90;;;;;;5052066;28;20174;-49
2022/12/16 01:55:04;;;;;;;39.87;19.90;;;-4.40;99.90;;;;;;5052102;28;20170;-46
2022/12/16 01:57:36;;;;;;;41.10;19.73;;;-4.30;99.90;;;;;;5052058;28;20498;-47
2022/12/16 02:00:05;;;;;;;42.70;20.30;;;-4.20;99.90;;;;;;5051954;28;20164;-50
2022/12/16 02:02:31;;;;;;;40.50;19.40;;;-4.40;99.90;;;;;;5051838;28;20255;-49
2022/12/16 02:07:41;;;;;;;39.93;19.57;;;-4.40;99.90;;;;;;5052192;28;20187;-47
2022/12/16 02:10:07;;;;;;;37.37;19.13;;;-4.40;99.90;;;;;;5052040;28;20220;-50
2022/12/16 02:12:49;;;;;;;44.90;20.97;;;-4.40;99.90;;;;;;5052091;28;20742;-50
2022/12/16 02:15:35;;;;;;;42.33;20.77;;;-4.40;99.90;;;;;;5051870;28;20168;-47
2022/12/16 02:18:39;;;;;;;43.20;19.73;;;-4.40;99.90;;;;;;5051722;28;20167;-47
2022/12/16 02:21:04;;;;;;;44.20;20.17;;;-4.50;99.90;;;;;;5051952;28;20205;-47
2022/12/16 02:23:46;;;;;;;46.23;19.93;;;-4.50;99.90;;;;;;5051669;28;20208;-46
2022/12/16 02:26:33;;;;;;;40.93;19.57;;;-4.40;99.90;;;;;;5050759;28;20650;-48
2022/12/16 02:29:35;;;;;;;42.63;20.33;;;-4.40;99.90;;;;;;5051416;28;20576;-49
2022/12/16 02:32:09;;;;;;;42.07;20.67;;;-4.40;99.90;;;;;;5051576;28;20164;-45
2022/12/16 02:34:52;;;;;;;44.47;20.83;;;-4.40;99.90;;;;;;5051692;28;20190;-45
2022/12/16 02:37:30;;;;;;;38.57;18.90;;;-4.40;99.90;;;;;;5051608;28;20591;-45
2022/12/16 02:40:00;;;;;;;40.40;19.27;;;-4.30;99.90;;;;;;5051618;28;20628;-45
2022/12/16 02:42:33;;;;;;;38.40;19.43;;;-4.50;99.90;;;;;;5051496;28;20178;-45
2022/12/16 02:45:09;;;;;;;36.60;18.67;;;-4.40;99.90;;;;;;5051556;28;20174;-45
2022/12/16 02:47:34;;;;;;;38.87;19.30;;;-4.40;99.90;;;;;;5051666;28;20223;-45
2022/12/16 02:50:00;;;;;;;51.70;20.67;;;-4.40;99.90;;;;;;5051350;28;20243;-45
2022/12/16 02:52:29;;;;;;;44.63;21.57;;;-4.50;99.90;;;;;;5051391;28;20173;-45
2022/12/16 02:55:00;;;;;;;41.87;20.27;;;-4.50;99.90;;;;;;5051685;28;20180;-45
2022/12/16 02:57:37;;;;;;;52.13;22.60;;;-4.60;99.90;;;;;;5051439;28;20208;-46
2022/12/16 03:00:11;;;;;;;38.20;19.97;;;-4.60;99.90;;;;;;5053364;28;20169;-45
2022/12/16 03:02:46;;;;;;;42.17;19.13;;;-4.60;99.90;;;;;;5054293;28;20209;-45
2022/12/16 03:05:19;;;;;;;43.43;20.13;;;-4.60;99.90;;;;;;5055686;28;20646;-45
2022/12/16 03:07:48;;;;;;;45.80;20.10;;;-4.60;99.90;;;;;;5055159;28;20168;-46
2022/12/16 03:10:18;;;;;;;43.40;20.20;;;-4.50;99.90;;;;;;5055164;28;20624;-46
2022/12/16 03:12:45;;;;;;;45.23;19.80;;;-4.50;99.90;;;;;;5054958;28;20178;-45
2022/12/16 03:15:15;;;;;;;36.30;18.20;;;-4.60;99.90;;;;;;5055438;28;20226;-48
2022/12/16 03:17:44;;;;;;;41.17;19.13;;;-4.60;99.90;;;;;;5055118;28;20173;-45
2022/12/16 03:20:15;;;;;;;38.43;20.00;;;-4.50;99.90;;;;;;5055310;28;20201;-50
2022/12/16 03:22:45;;;;;;;38.83;19.27;;;-4.60;99.90;;;;;;5055359;28;20181;-49
2022/12/16 03:25:10;;;;;;;43.00;19.13;;;-4.70;99.90;;;;;;5055241;28;20240;-47
2022/12/16 03:28:02;;;;;;;38.07;18.37;;;-4.60;99.90;;;;;;5054275;28;20170;-52
2022/12/16 03:30:33;;;;;;;38.60;17.97;;;-4.60;99.90;;;;;;5055084;28;20195;-52
2022/12/16 03:33:02;;;;;;;35.17;18.50;;;-4.60;99.90;;;;;;5054964;28;20167;-49
2022/12/16 03:35:36;;;;;;;40.10;19.03;;;-4.50;99.90;;;;;;5054732;28;20222;-51
2022/12/16 03:38:05;;;;;;;38.53;18.53;;;-4.60;99.90;;;;;;5054878;28;20267;-48
2022/12/16 03:40:32;;;;;;;45.07;20.20;;;-4.40;99.90;;;;;;5054627;28;20178;-51
2022/12/16 03:43:00;;;;;;;44.90;19.37;;;-4.50;99.90;;;;;;5054582;28;20623;-52
2022/12/16 03:45:34;;;;;;;35.13;18.17;;;-4.50;99.90;;;;;;5054754;28;20176;-49
2022/12/16 03:48:00;;;;;;;41.87;19.13;;;-4.60;99.90;;;;;;5054333;28;20183;-51
2022/12/16 03:50:32;;;;;;;45.10;19.50;;;-4.50;99.90;;;;;;5054271;28;20177;-51
2022/12/16 03:52:58;;;;;;;39.10;18.33;;;-4.70;99.90;;;;;;5054647;28;20170;-49
2022/12/16 03:55:23;;;;;;;41.63;17.87;;;-4.80;99.90;;;;;;5054380;28;20185;-50
2022/12/16 03:57:49;;;;;;;39.00;19.13;;;-4.80;99.90;;;;;;5054236;28;20172;-50
2022/12/16 04:00:15;;;;;;;38.27;18.47;;;-4.70;99.90;;;;;;5054171;28;20168;-49
2022/12/16 04:02:41;;;;;;;42.47;19.20;;;-4.70;99.90;;;;;;5054473;28;20313;-52
2022/12/16 04:05:08;;;;;;;49.03;21.10;;;-4.70;99.90;;;;;;5054156;28;20173;-47
2022/12/16 04:07:33;;;;;;;56.80;26.67;;;-4.70;99.90;;;;;;5054088;28;20168;-46
2022/12/16 04:09:59;;;;;;;43.17;20.57;;;-4.70;99.90;;;;;;5053713;28;20304;-47
2022/12/16 04:26:13;;;;;;;39.07;19.60;;;-4.80;99.90;;;;;;5054083;28;20227;-45
2022/12/16 04:28:39;;;;;;;43.70;18.73;;;-4.80;99.90;;;;;;5054009;28;20291;-46
2022/12/16 04:31:05;;;;;;;41.77;18.90;;;-4.80;99.90;;;;;;5053726;28;20247;-45
